DW1105 Weather Reports


Display with metric or nautical units.
time (UTC)temp
F
wind
direction
speed
MPH
gust
MPH
rain 1hr
in
rain 24hr
in
rain mn
in
humidity
%
barometer
mb
20200716012317 73 267 0.0 3.0 0.00 0.00 0.00 83 1023.8
20200716011313 73 267 0.0 2.0 0.00 0.00 0.00 83 1023.7
20200716010332 73 15 0.0 0.0 0.00 0.00 0.00 83 1023.6
20200716005329 74 15 0.0 0.0 0.00 0.00 0.00 82 1023.5
20200716004324 74 15 0.0 0.0 0.00 0.00 0.00 81 1023.4
20200716003320 74 15 0.0 0.0 0.00 0.00 0.00 80 1023.3
20200716002323 75 15 0.0 0.0 0.00 0.00 0.00 80 1023.2
20200716001318 75 15 0.0 0.0 0.00 0.00 0.00 79 1023.2
20200716000315 75 15 0.0 1.0 0.00 0.00 0.00 79 1023.2
20200715235315 76 15 0.0 0.0 0.00 0.00 0.00 79 1023.0
20200715234310 76 15 0.0 0.0 0.00 0.00 0.00 78 1023.0
20200715233312 77 15 0.0 0.0 0.00 0.00 0.00 77 1022.8
20200715232328 78 266 0.0 1.0 0.00 0.00 0.00 75 1022.9
20200715231330 78 265 0.0 0.0 0.00 0.00 0.00 74 1022.9
20200715230330 79 265 0.0 3.0 0.00 0.00 0.00 73 1022.8
20200715225323 80 251 0.0 0.0 0.00 0.00 0.00 72 1022.8
20200715224319 80 251 0.0 2.0 0.00 0.00 0.00 72 1022.6
20200715223322 80 190 0.0 1.0 0.00 0.00 0.00 71 1022.6
20200715222318 81 190 0.0 1.0 0.00 0.00 0.00 70 1022.6
20200715221313 82 191 0.0 0.0 0.00 0.00 0.00 70 1022.7
20200715220315 82 191 0.0 1.0 0.00 0.00 0.00 69 1022.7
20200715215329 82 183 0.0 1.0 0.00 0.00 0.00 69 1022.6
20200715214332 82 182 0.0 0.0 0.00 0.00 0.00 69 1022.6
20200715213322 82 183 0.0 0.0 0.00 0.00 0.00 69 1022.6
20200715212325 82 184 0.0 1.0 0.00 0.00 0.00 70 1022.7
20200715211320 83 232 0.0 4.0 0.00 0.00 0.00 69 1022.7
20200715210315 83 95 0.0 1.0 0.00 0.00 0.00 69 1022.6
20200715205317 83 95 0.0 0.0 0.00 0.00 0.00 70 1022.7
20200715204316 82 95 0.0 1.0 0.00 0.00 0.00 69 1022.7
20200715203312 82 95 0.0 3.0 0.00 0.00 0.00 69 1022.8
20200715202313 81 69 0.0 1.0 0.00 0.00 0.00 72 1022.7
20200715201329 80 67 0.0 1.0 0.00 0.00 0.00 72 1022.8
20200715200332 81 67 0.0 1.0 0.00 0.00 0.00 71 1022.8
20200715195328 82 190 0.0 2.0 0.00 0.00 0.00 68 1022.7
20200715194322 85 65 0.0 0.0 0.00 0.00 0.00 66 1022.7
20200715193324 84 65 0.0 2.0 0.00 0.00 0.00 65 1022.5
20200715192318 83 194 0.0 5.0 0.00 0.00 0.00 66 1022.5
20200715191313 84 186 0.0 4.0 0.00 0.00 0.00 63 1022.5
20200715190314 85 76 0.0 4.0 0.00 0.00 0.00 61 1022.4
20200715185329 85 46 0.0 4.0 0.00 0.00 0.00 64 1022.5
20200715184327 85 190 0.0 3.0 0.00 0.00 0.00 60 1022.5
20200715183323 84 161 0.0 2.0 0.00 0.00 0.00 61 1022.4
20200715182319 83 334 0.0 3.0 0.00 0.00 0.00 64 1022.4
20200715181318 82 332 0.0 1.0 0.00 0.00 0.00 65 1022.4
20200715180320 82 334 0.0 1.0 0.00 0.00 0.00 64 1022.3
20200715175314 84 337 0.0 1.0 0.00 0.00 0.00 62 1022.4
20200715174336 84 340 0.0 1.0 0.00 0.00 0.00 61 1022.6
20200715173310 83 333 0.0 2.0 0.00 0.00 0.00 61 1022.7
20200715172319 83 332 0.0 2.0 0.00 0.00 0.00 62 1022.6
20200715171322 81 338 0.0 5.0 0.00 0.00 0.00 66 1022.7
20200715170325 81 339 0.0 8.0 0.00 0.00 0.00 65 1022.7
20200715165320 82 267 0.0 1.0 0.00 0.00 0.00 65 1022.8
20200715164315 80 267 0.0 1.0 0.00 0.00 0.00 70 1023.0
20200715163318 79 325 0.0 1.0 0.00 0.00 0.00 69 1023.0
20200715162330 79 325 0.0 1.0 0.00 0.00 0.00 71 1022.9
20200715161331 79 325 0.0 0.0 0.00 0.00 0.00 68 1022.8
20200715160325 78 327 0.0 1.0 0.00 0.00 0.00 71 1022.8
20200715155319 79 317 0.0 5.0 0.00 0.00 0.00 72 1022.7
20200715154319 80 275 0.0 3.0 0.00 0.00 0.00 69 1022.7
20200715153316 78 281 0.0 0.0 0.00 0.00 0.00 71 1022.7
20200715152321 80 281 0.0 4.0 0.00 0.00 0.00 70 1022.7
20200715151326 79 279 0.0 4.0 0.00 0.00 0.00 75 1022.6
20200715150320 79 155 0.0 2.0 0.00 0.00 0.00 73 1022.5
20200715145314 77 257 0.0 1.0 0.00 0.00 0.00 79 1022.4
20200715144317 77 257 0.0 2.0 0.00 0.00 0.00 77 1022.2
20200715143313 78 159 0.0 1.0 0.00 0.00 0.00 78 1022.2
20200715142334 77 159 0.0 3.0 0.00 0.00 0.00 78 1022.0
20200715141329 78 119 1.0 3.0 0.00 0.00 0.00 77 1022.1
20200715140323 77 185 0.0 1.0 0.00 0.00 0.00 80 1022.3
20200715135310 78 184 0.0 1.0 0.00 0.00 0.00 78 1022.2
20200715134311 76 41 0.0 2.0 0.00 0.00 0.00 80 1022.3
20200715133333 75 29 0.0 1.0 0.00 0.00 0.00 84 1022.4
20200715132327 74 346 0.0 1.0 0.00 0.00 0.00 85 1022.5
20200715131314 75 346 0.0 1.0 0.00 0.00 0.00 85 1022.4
20200715130313 74 346 0.0 0.0 0.00 0.00 0.00 85 1022.4
20200715125322 73 347 0.0 0.0 0.00 0.00 0.00 89 1022.3
20200715124316 73 348 1.0 4.0 0.00 0.00 0.00 90 1022.2
20200715123320 72 348 0.0 0.0 0.00 0.00 0.00 90 1022.2
20200715122316 72 348 0.0 2.0 0.00 0.00 0.00 92 1022.0
20200715121313 71 348 0.0 9.0 0.00 0.00 0.00 92 1022.1
20200715120318 72 347 0.0 1.0 0.00 0.00 0.00 91 1021.9
20200715115314 72 347 0.0 1.0 0.00 0.00 0.00 92 1021.8
20200715114337 71 347 1.0 9.0 0.00 0.00 0.00 92 1021.7
20200715113329 71 5 1.0 4.0 0.00 0.00 0.00 92 1021.6
20200715112319 70 5 0.0 3.0 0.00 0.00 0.00 92 1021.6
20200715111312 70 5 0.0 3.0 0.00 0.00 0.00 92 1021.4
20200715110329 69 5 0.0 2.0 0.00 0.00 0.00 93 1021.4